Time;durP1;ratioP1;P1;durP2;ratioP2;P2;SDS_P1;SDS_P2;PMS_P1;PMS_P2;Temp;Humidity;BMP_temperature;BMP_pressure;BME280_temperature;BME280_humidity;BME280_pressure;Samples;Min_cycle;Max_cycle;Signal;HPM_P1;HPM_P2
2022/02/27 00:00:13;;;;;;;29.90;9.03;;;2.00;99.90;;;;;;4973777;28;20046;-89
2022/02/27 00:02:44;;;;;;;20.40;7.70;;;2.00;99.90;;;;;;4975825;28;20041;-88
2022/02/27 00:05:24;;;;;;;21.50;8.50;;;2.00;99.90;;;;;;4971901;28;20037;-88
2022/02/27 00:08:09;;;;;;;26.50;8.10;;;1.90;99.90;;;;;;4973503;28;20061;-89
2022/02/27 00:10:57;;;;;;;24.57;8.77;;;1.90;99.90;;;;;;5000349;28;20045;-88
2022/02/27 00:13:32;;;;;;;20.67;7.53;;;1.90;99.90;;;;;;5001303;28;20028;-88
2022/02/27 00:16:19;;;;;;;19.90;7.60;;;1.90;99.90;;;;;;4981130;28;20053;-84
2022/02/27 00:18:47;;;;;;;18.67;8.33;;;1.90;99.90;;;;;;4991223;28;20046;-83
2022/02/27 00:21:14;;;;;;;17.30;7.03;;;1.80;99.90;;;;;;4983378;28;20374;-85
2022/02/27 00:23:43;;;;;;;22.80;7.27;;;1.80;99.90;;;;;;4976169;28;20053;-84
2022/02/27 00:26:13;;;;;;;22.10;7.93;;;1.80;99.90;;;;;;4970884;28;20749;-85
2022/02/27 00:28:59;;;;;;;23.00;8.53;;;1.90;99.90;;;;;;4965063;28;20026;-85
2022/02/27 00:31:26;;;;;;;20.77;7.50;;;1.80;99.90;;;;;;4997886;28;20025;-84
2022/02/27 00:33:52;;;;;;;24.00;7.90;;;1.80;99.90;;;;;;4980251;28;20027;-84
2022/02/27 00:36:19;;;;;;;23.87;7.43;;;1.80;99.90;;;;;;4958596;28;20038;-84
2022/02/27 00:38:48;;;;;;;18.97;7.43;;;1.80;99.90;;;;;;4975356;28;20031;-85
2022/02/27 00:41:14;;;;;;;23.63;7.07;;;1.80;99.90;;;;;;4945578;28;20038;-84
2022/02/27 00:43:41;;;;;;;20.23;6.97;;;1.80;99.90;;;;;;4971965;28;20692;-84
2022/02/27 00:46:09;;;;;;;24.83;6.67;;;1.80;99.90;;;;;;4973130;28;20513;-84
2022/02/27 00:48:37;;;;;;;20.23;6.33;;;1.80;99.90;;;;;;4973467;28;20034;-84
2022/02/27 00:51:04;;;;;;;17.27;5.03;;;1.80;99.90;;;;;;4990652;28;20477;-82
2022/02/27 00:53:31;;;;;;;19.40;6.53;;;1.70;99.90;;;;;;4941053;28;20041;-82
2022/02/27 00:55:58;;;;;;;17.57;5.63;;;1.80;99.90;;;;;;4991935;28;20038;-82
2022/02/27 00:58:24;;;;;;;16.80;6.03;;;1.70;99.90;;;;;;4955682;28;20478;-82
2022/02/27 01:00:52;;;;;;;22.17;6.30;;;1.70;99.90;;;;;;4941276;28;20038;-83
2022/02/27 01:03:18;;;;;;;18.53;5.97;;;1.70;99.90;;;;;;4954528;28;20038;-83
2022/02/27 01:05:46;;;;;;;20.27;6.03;;;1.70;99.90;;;;;;4973733;28;20595;-83
2022/02/27 01:08:12;;;;;;;17.07;5.90;;;1.80;99.90;;;;;;4971221;28;20039;-83
2022/02/27 01:10:39;;;;;;;18.13;5.53;;;1.70;99.90;;;;;;4963570;28;20030;-83
2022/02/27 01:13:06;;;;;;;16.57;5.00;;;1.70;99.90;;;;;;4971599;28;20038;-84
2022/02/27 01:15:32;;;;;;;11.27;4.70;;;1.70;99.90;;;;;;4960420;28;20467;-83
2022/02/27 01:17:59;;;;;;;18.97;6.43;;;1.70;99.90;;;;;;4953213;28;20033;-83
2022/02/27 01:20:26;;;;;;;17.37;5.40;;;1.70;99.90;;;;;;4971873;28;20485;-83
2022/02/27 01:22:55;;;;;;;27.23;7.07;;;1.70;99.90;;;;;;4953481;28;20506;-81
2022/02/27 01:25:22;;;;;;;18.13;5.53;;;1.70;99.90;;;;;;4975735;28;20046;-81
2022/02/27 01:27:49;;;;;;;12.33;4.40;;;1.70;99.90;;;;;;4954312;28;20045;-81
2022/02/27 01:30:15;;;;;;;10.87;4.10;;;1.70;99.90;;;;;;4969550;28;20030;-80
2022/02/27 01:32:41;;;;;;;14.70;5.27;;;1.60;99.90;;;;;;4955753;28;20026;-81
2022/02/27 01:35:08;;;;;;;16.93;5.30;;;1.60;99.90;;;;;;4960762;28;20034;-79
2022/02/27 01:37:36;;;;;;;15.80;4.43;;;1.60;99.90;;;;;;4987429;28;20034;-82
2022/02/27 01:40:03;;;;;;;15.70;5.03;;;1.50;99.90;;;;;;4957494;28;20367;-87
2022/02/27 01:42:30;;;;;;;16.17;4.93;;;1.50;99.90;;;;;;4960440;28;20042;-83
2022/02/27 01:44:57;;;;;;;19.37;5.30;;;1.50;99.90;;;;;;4941247;28;20038;-82
2022/02/27 01:47:23;;;;;;;18.03;5.37;;;1.50;99.90;;;;;;4987496;28;20046;-81
2022/02/27 01:49:51;;;;;;;14.27;4.40;;;1.50;99.90;;;;;;4941513;28;20046;-80
2022/02/27 01:52:17;;;;;;;16.40;4.57;;;1.50;99.90;;;;;;4965279;28;20038;-84
2022/02/27 01:54:44;;;;;;;8.90;4.27;;;1.50;99.90;;;;;;4955335;28;20033;-81
2022/02/27 01:57:11;;;;;;;15.50;4.90;;;1.50;99.90;;;;;;4947160;28;20117;-82
2022/02/27 01:59:39;;;;;;;14.53;4.37;;;1.50;99.90;;;;;;4959469;28;20041;-84
2022/02/27 02:02:08;;;;;;;16.13;4.43;;;1.50;99.90;;;;;;4960130;28;20046;-84
2022/02/27 02:04:35;;;;;;;14.77;3.13;;;1.50;99.90;;;;;;4947685;28;20046;-84
2022/02/27 02:07:03;;;;;;;10.57;3.40;;;1.50;99.90;;;;;;4960405;28;20045;-83
2022/02/27 02:09:30;;;;;;;12.67;4.00;;;1.40;99.90;;;;;;4959917;28;20037;-83
2022/02/27 02:12:02;;;;;;;15.27;4.23;;;1.40;99.90;;;;;;4965203;28;20026;-84
2022/02/27 02:14:30;;;;;;;12.07;3.70;;;1.40;99.90;;;;;;4974940;28;20026;-84
2022/02/27 02:17:00;;;;;;;15.23;4.10;;;1.40;99.90;;;;;;4961222;28;20350;-85
2022/02/27 02:19:27;;;;;;;16.83;4.13;;;1.40;99.90;;;;;;4963752;28;20038;-82
2022/02/27 02:22:03;;;;;;;10.50;3.37;;;1.30;99.90;;;;;;4963965;28;20046;-80
2022/02/27 02:24:30;;;;;;;13.07;3.60;;;1.30;99.90;;;;;;4986487;28;20058;-82
2022/02/27 02:26:58;;;;;;;9.53;3.30;;;1.30;99.90;;;;;;4991672;28;20564;-83
2022/02/27 02:29:25;;;;;;;11.47;3.00;;;1.30;99.90;;;;;;4946344;28;20030;-82
2022/02/27 02:31:55;;;;;;;7.30;2.67;;;1.30;99.90;;;;;;4964419;28;20038;-83
2022/02/27 02:34:25;;;;;;;14.00;4.40;;;1.30;99.90;;;;;;4962238;28;20399;-82
2022/02/27 02:36:55;;;;;;;12.57;3.37;;;1.20;99.90;;;;;;4964212;28;20034;-84
2022/02/27 02:39:24;;;;;;;17.90;3.43;;;1.20;99.90;;;;;;4966443;28;20038;-81
2022/02/27 02:41:52;;;;;;;16.07;3.50;;;1.20;99.90;;;;;;4975926;28;20018;-84
2022/02/27 02:44:29;;;;;;;13.07;3.57;;;1.20;99.90;;;;;;4963826;28;20046;-84
2022/02/27 02:46:58;;;;;;;10.93;3.30;;;1.20;99.90;;;;;;4977371;28;20050;-83
2022/02/27 02:49:26;;;;;;;14.90;5.13;;;1.20;99.90;;;;;;4991648;28;20031;-82
2022/02/27 02:52:07;;;;;;;16.63;4.67;;;1.20;99.90;;;;;;4986961;28;21294;-84
2022/02/27 02:54:37;;;;;;;16.67;4.30;;;1.20;99.90;;;;;;4961044;28;20034;-82
2022/02/27 02:57:27;;;;;;;13.57;4.03;;;1.20;99.90;;;;;;4961905;28;20038;-86
2022/02/27 02:59:59;;;;;;;18.17;4.77;;;1.10;99.90;;;;;;4986524;28;20479;-82
2022/02/27 03:02:26;;;;;;;16.07;4.70;;;1.20;99.90;;;;;;4973270;28;20470;-82
2022/02/27 03:04:53;;;;;;;13.20;4.47;;;1.20;99.90;;;;;;4973634;28;20046;-81
2022/02/27 03:07:39;;;;;;;13.00;4.67;;;1.10;99.90;;;;;;4986455;28;20356;-82
2022/02/27 03:10:26;;;;;;;18.42;4.78;;;1.20;99.90;;;;;;4973342;28;20033;-80
2022/02/27 03:12:52;;;;;;;17.17;4.83;;;1.20;99.90;;;;;;4989984;28;20037;-81
2022/02/27 03:15:19;;;;;;;17.50;4.80;;;1.20;99.90;;;;;;4960451;28;20042;-82
2022/02/27 03:17:58;;;;;;;15.67;5.00;;;1.20;99.90;;;;;;4960582;28;20454;-83
2022/02/27 03:20:26;;;;;;;13.03;4.83;;;1.20;99.90;;;;;;4988588;28;20035;-79
2022/02/27 03:22:53;;;;;;;13.13;4.30;;;1.20;99.90;;;;;;4961170;28;20042;-80
2022/02/27 03:25:23;;;;;;;17.33;3.77;;;1.20;99.90;;;;;;4974731;28;20494;-79
2022/02/27 03:27:51;;;;;;;11.77;3.40;;;1.20;99.90;;;;;;4957109;28;20556;-81
2022/02/27 03:30:28;;;;;;;14.23;3.90;;;1.20;99.90;;;;;;4955776;28;20042;-80
2022/02/27 03:32:55;;;;;;;13.80;4.03;;;1.20;99.90;;;;;;4989474;28;20027;-80
2022/02/27 03:35:22;;;;;;;13.93;3.83;;;1.10;99.90;;;;;;4943335;28;20045;-80
2022/02/27 03:37:50;;;;;;;11.17;4.07;;;1.10;99.90;;;;;;4985978;28;20029;-80
2022/02/27 03:40:17;;;;;;;11.70;3.43;;;1.20;99.90;;;;;;4953930;28;20029;-79
2022/02/27 03:42:44;;;;;;;14.87;3.30;;;1.10;99.90;;;;;;4973916;28;20042;-80
2022/02/27 03:45:12;;;;;;;15.30;3.20;;;1.10;99.90;;;;;;4957783;28;20535;-81
2022/02/27 03:47:38;;;;;;;16.93;3.73;;;1.10;99.90;;;;;;4969864;28;20039;-81
2022/02/27 03:50:05;;;;;;;13.90;3.53;;;1.00;99.90;;;;;;4955942;28;20042;-80
2022/02/27 03:52:34;;;;;;;10.33;3.40;;;1.00;99.90;;;;;;4945418;28;20045;-81
2022/02/27 03:55:05;;;;;;;16.10;5.40;;;1.10;99.90;;;;;;4972584;28;20057;-83
2022/02/27 03:57:32;;;;;;;14.13;3.63;;;1.10;99.90;;;;;;4928987;28;20075;-82
2022/02/27 03:59:58;;;;;;;11.37;3.43;;;1.10;99.90;;;;;;4945478;28;20045;-81
2022/02/27 04:02:25;;;;;;;13.77;3.70;;;1.00;99.90;;;;;;4971201;28;20027;-81
2022/02/27 04:04:51;;;;;;;15.37;4.03;;;1.00;99.90;;;;;;4952818;28;20054;-82
2022/02/27 04:07:18;;;;;;;20.07;6.10;;;1.10;99.90;;;;;;4970931;28;20042;-82
2022/02/27 04:09:44;;;;;;;12.43;3.70;;;1.10;99.90;;;;;;4972009;28;20054;-81
2022/02/27 04:12:11;;;;;;;14.63;4.37;;;1.00;99.90;;;;;;4925475;28;20034;-81
2022/02/27 04:14:37;;;;;;;11.43;3.47;;;1.00;99.90;;;;;;4975493;28;20038;-82
2022/02/27 04:17:04;;;;;;;18.73;4.27;;;1.00;99.90;;;;;;4940978;28;20709;-82
2022/02/27 04:19:30;;;;;;;16.73;4.97;;;1.00;99.90;;;;;;4955631;28;20037;-80
2022/02/27 04:21:57;;;;;;;19.43;4.77;;;1.00;99.90;;;;;;4958718;28;20026;-81
2022/02/27 04:24:23;;;;;;;12.27;4.37;;;1.00;99.90;;;;;;4974387;28;20045;-80
2022/02/27 04:26:51;;;;;;;15.60;4.63;;;1.00;99.90;;;;;;4957779;28;20034;-80
2022/02/27 04:29:18;;;;;;;18.00;4.43;;;1.00;99.90;;;;;;4936765;28;20522;-81
2022/02/27 04:31:45;;;;;;;15.70;5.07;;;1.00;99.90;;;;;;4969915;28;20027;-82
2022/02/27 04:34:11;;;;;;;20.63;4.70;;;0.90;99.90;;;;;;4955837;28;20026;-81
2022/02/27 04:36:39;;;;;;;12.53;4.37;;;1.00;99.90;;;;;;4973498;28;20042;-82
2022/02/27 04:39:05;;;;;;;15.93;4.87;;;0.90;99.90;;;;;;4957841;28;20034;-82
2022/02/27 04:41:32;;;;;;;17.23;4.77;;;0.90;99.90;;;;;;4985227;28;20446;-82
2022/02/27 04:43:58;;;;;;;15.83;4.20;;;0.90;99.90;;;;;;4988757;28;20371;-82
2022/02/27 04:46:25;;;;;;;9.57;4.33;;;0.90;99.90;;;;;;4957140;28;20046;-86
2022/02/27 04:48:51;;;;;;;12.37;3.90;;;0.90;99.90;;;;;;4941409;28;20034;-83
2022/02/27 04:51:18;;;;;;;14.97;4.97;;;0.90;99.90;;;;;;4957442;28;20034;-85
2022/02/27 04:53:45;;;;;;;15.30;5.07;;;0.80;99.90;;;;;;4974825;28;20457;-87
2022/02/27 04:56:12;;;;;;;11.67;3.73;;;0.80;99.90;;;;;;4960737;28;20034;-86
2022/02/27 04:58:39;;;;;;;16.57;5.17;;;0.80;99.90;;;;;;4943392;28;20039;-86
2022/02/27 05:01:05;;;;;;;15.43;6.43;;;0.80;99.90;;;;;;4956933;28;20026;-83
2022/02/27 05:03:32;;;;;;;19.27;4.53;;;0.80;99.90;;;;;;4986418;28;20030;-81
2022/02/27 05:05:58;;;;;;;16.67;4.90;;;0.80;99.90;;;;;;4960010;28;20381;-81
2022/02/27 05:08:24;;;;;;;13.20;4.90;;;0.80;99.90;;;;;;4958331;28;20046;-81
2022/02/27 05:10:51;;;;;;;24.07;6.67;;;0.70;99.90;;;;;;4955128;28;20119;-81
2022/02/27 05:13:18;;;;;;;18.93;4.97;;;0.70;99.90;;;;;;4971149;28;20366;-80
2022/02/27 05:15:44;;;;;;;12.03;4.90;;;0.70;99.90;;;;;;4973730;28;20438;-80
2022/02/27 05:18:11;;;;;;;19.37;6.53;;;0.70;99.90;;;;;;4971388;28;20034;-80
2022/02/27 05:20:40;;;;;;;23.33;7.27;;;0.70;99.90;;;;;;4938157;28;20398;-81
2022/02/27 05:23:07;;;;;;;18.87;5.63;;;0.70;99.90;;;;;;4986526;28;21442;-80
2022/02/27 05:25:33;;;;;;;23.80;6.40;;;0.70;99.90;;;;;;4959215;28;20026;-80
2022/02/27 05:28:00;;;;;;;16.97;5.67;;;0.70;99.90;;;;;;4944056;28;20038;-81
2022/02/27 05:30:26;;;;;;;19.80;6.17;;;0.70;99.90;;;;;;4942247;28;20057;-80
2022/02/27 05:32:53;;;;;;;15.70;6.40;;;0.70;99.90;;;;;;4967524;28;20035;-81
2022/02/27 05:35:19;;;;;;;13.43;4.93;;;0.70;99.90;;;;;;4972066;28;20050;-80
2022/02/27 05:37:46;;;;;;;13.47;4.97;;;0.70;99.90;;;;;;4954878;28;20034;-80
2022/02/27 05:40:13;;;;;;;23.07;6.20;;;0.70;99.90;;;;;;4957296;28;20026;-81
2022/02/27 05:42:39;;;;;;;18.57;5.77;;;0.60;99.90;;;;;;4938910;28;20141;-80
2022/02/27 05:45:06;;;;;;;19.67;6.40;;;0.70;99.90;;;;;;4988846;28;20053;-84
2022/02/27 05:47:43;;;;;;;19.87;6.20;;;0.70;99.90;;;;;;4947795;28;20115;-83
2022/02/27 05:50:10;;;;;;;27.63;6.80;;;0.70;99.90;;;;;;4967788;28;20042;-82
2022/02/27 05:52:37;;;;;;;15.33;5.27;;;0.70;99.90;;;;;;4957181;28;20374;-81
2022/02/27 05:55:04;;;;;;;18.53;6.03;;;0.70;99.90;;;;;;4953379;28;20046;-81
2022/02/27 05:57:31;;;;;;;24.60;6.73;;;0.60;99.90;;;;;;4923334;28;20045;-82
2022/02/27 05:59:57;;;;;;;16.77;5.97;;;0.60;99.90;;;;;;4956249;28;20034;-83
2022/02/27 06:02:23;;;;;;;15.13;5.20;;;0.60;99.90;;;;;;4956885;28;20046;-83
2022/02/27 06:04:50;;;;;;;17.13;5.70;;;0.60;99.90;;;;;;4946497;28;20050;-81
2022/02/27 06:07:16;;;;;;;16.43;5.20;;;0.60;99.90;;;;;;4939331;28;20046;-88
2022/02/27 06:09:43;;;;;;;15.90;6.03;;;0.60;99.90;;;;;;4959641;28;20034;-84
2022/02/27 06:12:10;;;;;;;18.77;5.63;;;0.50;99.90;;;;;;4946475;28;20045;-83
2022/02/27 06:14:36;;;;;;;16.77;6.03;;;0.50;99.90;;;;;;4952215;28;20062;-83
2022/02/27 06:17:03;;;;;;;13.77;5.00;;;0.50;99.90;;;;;;4971181;28;20030;-84
2022/02/27 06:19:29;;;;;;;14.77;5.13;;;0.50;99.90;;;;;;4969435;28;20394;-83
2022/02/27 06:21:56;;;;;;;12.70;4.87;;;0.50;99.90;;;;;;4977715;28;20037;-83
2022/02/27 06:24:23;;;;;;;16.63;6.07;;;0.50;99.90;;;;;;4944921;28;20105;-83
2022/02/27 06:26:50;;;;;;;14.30;6.07;;;0.50;99.90;;;;;;4959660;28;20375;-82
2022/02/27 06:29:16;;;;;;;22.63;6.80;;;0.50;99.90;;;;;;4969598;28;20034;-83
2022/02/27 06:31:43;;;;;;;14.33;5.53;;;0.50;99.90;;;;;;4955090;28;20053;-83
2022/02/27 06:34:13;;;;;;;13.53;4.87;;;0.60;99.90;;;;;;4985616;28;20042;-85
2022/02/27 06:36:39;;;;;;;16.53;6.70;;;0.60;99.90;;;;;;4947405;28;20485;-83
2022/02/27 06:39:07;;;;;;;15.43;7.20;;;0.50;99.90;;;;;;4987911;28;20030;-84
2022/02/27 06:41:34;;;;;;;17.97;5.90;;;0.60;99.90;;;;;;4979879;28;20371;-81
2022/02/27 06:44:00;;;;;;;19.47;6.03;;;0.60;99.90;;;;;;4948444;28;20029;-81
2022/02/27 06:46:31;;;;;;;15.83;6.63;;;0.60;99.90;;;;;;4959478;28;20030;-81
2022/02/27 06:49:01;;;;;;;14.73;5.55;;;0.70;99.90;;;;;;4988081;28;20036;-84
2022/02/27 06:51:27;;;;;;;18.37;7.43;;;0.70;99.90;;;;;;4978285;28;20034;-83
2022/02/27 06:53:58;;;;;;;17.43;6.27;;;0.70;99.90;;;;;;4960501;28;20050;-83
2022/02/27 06:56:27;;;;;;;19.40;5.10;;;0.80;99.90;;;;;;4961052;28;20042;-82
2022/02/27 06:58:56;;;;;;;14.43;6.13;;;0.80;99.90;;;;;;4973706;28;20034;-86
2022/02/27 07:01:25;;;;;;;15.23;6.37;;;0.80;99.90;;;;;;4964742;28;20039;-86
2022/02/27 07:03:56;;;;;;;12.60;6.20;;;0.90;99.90;;;;;;4983778;28;20508;-83
2022/02/27 07:06:25;;;;;;;12.50;5.37;;;1.00;99.90;;;;;;4992343;28;20030;-83
2022/02/27 07:08:53;;;;;;;17.77;6.33;;;1.00;99.90;;;;;;4991851;28;20030;-80
2022/02/27 07:11:22;;;;;;;17.97;6.10;;;1.10;99.90;;;;;;4992553;28;20041;-80
2022/02/27 07:13:49;;;;;;;27.43;6.53;;;1.20;99.90;;;;;;4974738;28;20050;-80
2022/02/27 07:16:15;;;;;;;15.90;5.97;;;1.20;99.90;;;;;;4977302;28;20037;-80
2022/02/27 07:18:43;;;;;;;13.40;6.00;;;1.30;99.90;;;;;;4973478;28;20371;-80
2022/02/27 07:21:12;;;;;;;17.73;6.30;;;1.40;99.90;;;;;;4960836;28;20030;-80
2022/02/27 07:23:38;;;;;;;17.93;4.97;;;1.50;99.90;;;;;;4977792;28;20046;-79
2022/02/27 07:26:05;;;;;;;18.00;6.13;;;1.50;99.90;;;;;;4975927;28;20026;-79
2022/02/27 07:28:31;;;;;;;17.07;5.40;;;1.60;99.90;;;;;;4990642;28;20060;-79
2022/02/27 07:30:58;;;;;;;14.57;4.90;;;1.70;99.90;;;;;;4958877;28;20042;-77
2022/02/27 07:33:30;;;;;;;17.08;5.72;;;1.80;99.90;;;;;;4992078;28;20061;-79
2022/02/27 07:35:57;;;;;;;16.70;6.30;;;1.80;99.90;;;;;;4957341;28;20041;-79
2022/02/27 07:38:24;;;;;;;16.60;6.00;;;1.90;99.90;;;;;;4988986;28;20035;-79
2022/02/27 07:40:51;;;;;;;21.07;5.63;;;2.00;99.90;;;;;;4941142;28;20041;-84
2022/02/27 07:43:19;;;;;;;14.70;5.33;;;2.00;99.90;;;;;;4974751;28;20038;-83
2022/02/27 07:45:46;;;;;;;13.87;5.07;;;2.10;99.90;;;;;;4943862;28;20477;-84
2022/02/27 07:48:14;;;;;;;21.03;5.37;;;2.20;99.90;;;;;;4957144;28;20389;-80
2022/02/27 07:50:41;;;;;;;12.90;5.20;;;2.30;99.90;;;;;;4956735;28;20046;-81
2022/02/27 07:53:07;;;;;;;20.37;5.43;;;2.40;99.90;;;;;;4956585;28;20378;-80
2022/02/27 07:55:34;;;;;;;10.17;4.33;;;2.50;99.90;;;;;;4972539;28;20122;-79
2022/02/27 07:58:00;;;;;;;10.50;5.17;;;2.50;99.90;;;;;;4938168;28;20042;-80
2022/02/27 08:00:28;;;;;;;10.33;4.50;;;2.60;99.90;;;;;;4969381;28;20382;-80
2022/02/27 08:02:54;;;;;;;16.17;6.10;;;2.70;99.90;;;;;;4944528;28;20042;-79
2022/02/27 08:05:20;;;;;;;14.53;5.23;;;2.80;99.90;;;;;;4975975;28;20061;-80
2022/02/27 08:07:47;;;;;;;20.27;5.73;;;2.90;99.90;;;;;;4945001;28;20033;-82
2022/02/27 08:10:14;;;;;;;14.87;4.80;;;3.00;99.90;;;;;;4972327;28;20033;-80
2022/02/27 08:12:45;;;;;;;15.90;4.77;;;3.00;99.90;;;;;;4957043;28;20038;-81
2022/02/27 08:15:14;;;;;;;15.27;5.27;;;3.10;99.90;;;;;;4970228;28;20030;-81
2022/02/27 08:17:41;;;;;;;14.77;5.07;;;3.20;99.90;;;;;;4959364;28;20039;-81
2022/02/27 08:20:09;;;;;;;15.10;4.97;;;3.20;99.90;;;;;;4987151;28;20397;-81
2022/02/27 08:22:36;;;;;;;18.93;4.50;;;3.30;99.90;;;;;;4970473;28;20375;-81
2022/02/27 08:25:07;;;;;;;14.33;5.70;;;3.40;99.90;;;;;;4957135;28;20030;-80
2022/02/27 08:27:34;;;;;;;15.40;5.07;;;3.40;99.90;;;;;;4972248;28;20026;-80
2022/02/27 08:30:00;;;;;;;12.70;5.33;;;3.50;99.90;;;;;;4970572;28;20033;-80
2022/02/27 08:32:27;;;;;;;15.73;4.60;;;3.50;99.90;;;;;;4946982;28;20038;-82
2022/02/27 08:34:53;;;;;;;19.93;5.23;;;3.60;99.90;;;;;;4944029;28;20034;-83
2022/02/27 08:37:20;;;;;;;13.47;4.80;;;3.70;99.90;;;;;;4957893;28;20053;-83
2022/02/27 08:39:47;;;;;;;14.53;4.40;;;3.70;99.90;;;;;;4952664;28;20041;-84
2022/02/27 08:42:14;;;;;;;14.80;4.50;;;3.80;99.90;;;;;;4974212;28;20030;-83
2022/02/27 08:44:47;;;;;;;13.00;4.03;;;3.90;99.90;;;;;;4975685;28;20025;-84
2022/02/27 08:47:13;;;;;;;13.52;5.22;;;3.90;99.90;;;;;;4954875;28;20045;-80
2022/02/27 08:49:40;;;;;;;14.23;4.17;;;3.90;99.90;;;;;;4968017;28;20057;-80
2022/02/27 08:52:06;;;;;;;11.97;4.03;;;4.00;99.90;;;;;;4986069;28;20046;-83
2022/02/27 08:54:33;;;;;;;12.33;4.40;;;4.00;99.90;;;;;;4973551;28;20470;-82
2022/02/27 08:57:00;;;;;;;15.17;4.10;;;4.10;99.90;;;;;;4988437;28;20045;-80
2022/02/27 08:59:26;;;;;;;12.20;3.87;;;4.20;99.90;;;;;;4940803;28;20394;-79
2022/02/27 09:01:53;;;;;;;16.17;4.43;;;4.30;99.90;;;;;;4964674;28;20061;-80
2022/02/27 09:04:26;;;;;;;;;;;4.40;99.90;;;;;;4986440;28;20382;-80
2022/02/27 09:06:57;;;;;;;15.13;4.20;;;4.50;99.90;;;;;;4972463;28;19914;-82
2022/02/27 09:09:23;;;;;;;9.83;4.53;;;4.60;99.90;;;;;;4951865;28;20486;-81
2022/02/27 09:11:53;;;;;;;9.83;4.20;;;4.60;99.90;;;;;;4987464;28;20025;-80
2022/02/27 09:14:19;;;;;;;14.57;3.73;;;4.70;99.90;;;;;;4952879;28;20390;-87
2022/02/27 09:16:46;;;;;;;7.73;3.63;;;4.80;99.90;;;;;;4959493;28;20026;-80
2022/02/27 09:19:12;;;;;;;11.10;4.30;;;4.90;99.90;;;;;;4985966;28;20053;-80
2022/02/27 09:21:39;;;;;;;9.03;3.90;;;4.90;99.90;;;;;;4968440;28;20394;-79
2022/02/27 09:24:06;;;;;;;12.13;4.90;;;5.10;99.90;;;;;;4952570;28;20376;-82
2022/02/27 09:26:32;;;;;;;13.23;4.57;;;5.10;99.90;;;;;;4952008;28;20031;-79
2022/02/27 09:29:01;;;;;;;15.07;4.00;;;5.20;99.90;;;;;;4950445;28;20702;-79
2022/02/27 09:31:28;;;;;;;13.67;4.30;;;5.30;99.90;;;;;;4953218;28;20039;-80
2022/02/27 09:33:54;;;;;;;9.02;4.05;;;5.40;99.90;;;;;;4952418;28;20054;-79
2022/02/27 09:36:23;;;;;;;9.60;4.23;;;5.40;99.90;;;;;;4969223;28;20031;-85
2022/02/27 09:38:50;;;;;;;12.27;4.35;;;5.60;99.90;;;;;;4948984;28;20057;-81
2022/02/27 09:41:16;;;;;;;11.68;4.13;;;5.70;99.90;;;;;;4950880;28;20050;-79
2022/02/27 09:43:50;;;;;;;11.27;4.13;;;5.70;99.90;;;;;;4952475;28;20114;-80
2022/02/27 09:46:17;;;;;;;11.18;3.42;;;5.90;99.90;;;;;;4951178;28;20035;-81
2022/02/27 09:48:46;;;;;;;17.65;4.95;;;6.00;99.90;;;;;;4912594;28;20317;-79
2022/02/27 09:51:13;;;;;;;14.02;4.07;;;6.10;99.90;;;;;;4922161;28;20034;-83
2022/02/27 09:53:40;;;;;;;12.43;3.90;;;6.30;99.90;;;;;;4966275;28;20022;-81
2022/02/27 09:56:07;;;;;;;9.40;3.45;;;6.30;99.90;;;;;;4924118;28;20038;-80
2022/02/27 09:58:34;;;;;;;8.82;3.55;;;6.40;99.90;;;;;;4964565;28;20038;-80
2022/02/27 10:01:00;;;;;;;12.80;3.90;;;6.40;99.90;;;;;;4936765;28;20404;-81
2022/02/27 10:03:30;;;;;;;8.10;2.95;;;6.50;99.90;;;;;;4921025;28;20035;-79
2022/02/27 10:06:02;;;;;;;12.63;3.85;;;6.60;99.90;;;;;;4952659;28;20477;-79
2022/02/27 10:08:46;;;;;;;10.93;3.90;;;6.70;99.90;;;;;;4964562;28;20367;-80
2022/02/27 10:11:22;;;;;;;10.75;3.45;;;6.80;99.90;;;;;;4954340;28;20030;-84
2022/02/27 10:13:55;;;;;;;8.90;3.10;;;6.90;99.90;;;;;;4953851;28;20034;-80
2022/02/27 10:16:22;;;;;;;;;;;7.10;99.90;;;;;;4972207;28;20153;-82
2022/02/27 10:18:54;;;;;;;11.88;3.40;;;7.20;99.90;;;;;;4940220;28;19922;-82
2022/02/27 10:21:30;;;;;;;6.30;2.80;;;7.40;99.90;;;;;;4954053;28;20030;-83
2022/02/27 10:24:06;;;;;;;6.35;2.67;;;7.50;99.90;;;;;;4979165;28;20046;-87
2022/02/27 10:26:34;;;;;;;7.70;2.55;;;7.70;99.90;;;;;;4977149;28;20504;-83
2022/02/27 10:29:13;;;;;;;6.35;3.03;;;7.80;99.90;;;;;;4971173;28;20057;-77
2022/02/27 10:31:54;;;;;;;11.05;3.17;;;8.00;99.90;;;;;;4987486;28;20053;-80
2022/02/27 10:34:24;;;;;;;10.48;2.60;;;8.20;99.90;;;;;;4956810;28;20030;-79
2022/02/27 10:37:03;;;;;;;6.53;2.50;;;8.40;99.90;;;;;;4971836;28;20034;-76
2022/02/27 10:39:45;;;;;;;8.25;2.58;;;8.60;99.90;;;;;;4956219;28;20047;-79
2022/02/27 10:42:22;;;;;;;10.52;3.17;;;8.90;99.90;;;;;;4993613;28;20031;-79
2022/02/27 10:45:06;;;;;;;7.30;2.50;;;9.20;99.90;;;;;;4986873;28;20379;-80
2022/02/27 10:47:35;;;;;;;8.52;3.53;;;9.50;99.90;;;;;;4991648;28;20034;-80
2022/02/27 10:50:09;;;;;;;8.13;2.83;;;9.90;99.90;;;;;;4988165;28;20495;-80
2022/02/27 10:52:42;;;;;;;12.05;3.03;;;10.20;99.90;;;;;;4974627;28;20053;-79
2022/02/27 10:55:10;;;;;;;8.35;2.55;;;10.40;98.90;;;;;;4989638;28;20057;-79
2022/02/27 10:57:46;;;;;;;6.55;2.10;;;10.50;99.20;;;;;;4972058;28;20627;-79
2022/02/27 11:00:13;;;;;;;5.40;2.22;;;10.80;98.90;;;;;;4970057;28;20382;-80
2022/02/27 11:02:45;;;;;;;11.13;2.28;;;10.90;97.40;;;;;;4973140;28;20049;-78
2022/02/27 11:05:13;;;;;;;7.78;2.05;;;11.20;97.30;;;;;;4960910;28;20045;-78
2022/02/27 11:07:55;;;;;;;6.50;1.83;;;11.40;97.10;;;;;;4969813;28;20053;-77
2022/02/27 11:10:24;;;;;;;5.40;2.55;;;11.70;95.50;;;;;;4985602;28;20042;-78
2022/02/27 11:12:50;;;;;;;6.28;1.77;;;11.90;93.90;;;;;;4970181;28;20043;-78
2022/02/27 11:15:22;;;;;;;7.05;2.17;;;12.20;93.80;;;;;;4988795;28;20039;-78
2022/02/27 11:17:49;;;;;;;6.67;1.73;;;12.30;91.50;;;;;;4988518;28;20706;-78
2022/02/27 11:20:19;;;;;;;5.78;1.65;;;12.40;89.90;;;;;;4983870;28;20057;-78
2022/02/27 11:22:48;;;;;;;5.72;1.70;;;12.40;89.70;;;;;;4960480;28;20424;-78
2022/02/27 11:25:16;;;;;;;8.10;2.35;;;12.50;86.90;;;;;;4958282;28;20397;-78
2022/02/27 11:27:47;;;;;;;6.10;2.30;;;12.50;87.30;;;;;;4988089;28;20034;-78
2022/02/27 11:30:18;;;;;;;7.15;2.08;;;12.70;85.20;;;;;;4970619;28;20031;-78
2022/02/27 11:32:54;;;;;;;6.47;2.83;;;12.70;82.50;;;;;;4974550;28;20497;-78
2022/02/27 11:35:43;;;;;;;7.30;2.38;;;12.60;81.70;;;;;;4972427;28;20036;-77
2022/02/27 11:38:38;;;;;;;7.00;2.55;;;12.50;82.50;;;;;;4975385;28;20041;-77
2022/02/27 11:41:20;;;;;;;10.02;2.67;;;12.50;80.30;;;;;;4972672;28;20497;-78
2022/02/27 11:43:50;;;;;;;;;;;12.50;79.70;;;;;;4985762;28;20572;-77
2022/02/27 11:46:33;;;;;;;8.43;2.30;;;12.40;79.30;;;;;;4985398;28;19917;-78
2022/02/27 11:49:04;;;;;;;5.78;2.13;;;12.00;79.40;;;;;;4970081;28;20053;-78
2022/02/27 11:51:36;;;;;;;7.60;2.40;;;11.40;80.60;;;;;;4958801;28;20053;-77
2022/02/27 11:54:15;;;;;;;9.20;3.05;;;11.00;81.80;;;;;;4973348;28;20466;-78
2022/02/27 11:56:44;;;;;;;8.60;3.22;;;10.60;82.00;;;;;;4989368;28;20033;-77
2022/02/27 11:59:12;;;;;;;6.80;2.50;;;10.30;83.00;;;;;;4969364;28;20389;-77
2022/02/27 12:01:47;;;;;;;7.18;2.55;;;10.10;83.60;;;;;;4971504;28;20034;-77
2022/02/27 12:04:20;;;;;;;9.27;2.92;;;9.90;84.20;;;;;;4974388;28;20029;-77
2022/02/27 12:07:08;;;;;;;;;;;9.80;85.10;;;;;;4939897;28;20034;-78
2022/02/27 12:09:50;;;;;;;6.97;2.15;;;9.90;85.50;;;;;;4938808;28;19924;-78
2022/02/27 12:12:40;;;;;;;8.05;2.20;;;10.50;86.40;;;;;;4955694;28;20030;-77
2022/02/27 12:15:35;;;;;;;6.45;2.30;;;11.10;83.60;;;;;;4985714;28;20037;-77
2022/02/27 12:18:21;;;;;;;6.38;2.40;;;11.70;81.30;;;;;;4963372;28;20037;-76
2022/02/27 12:20:58;;;;;;;7.38;2.05;;;12.20;78.70;;;;;;4938686;28;20397;-77
2022/02/27 12:23:30;;;;;;;9.32;3.58;;;12.60;79.30;;;;;;4960184;28;20042;-78
2022/02/27 12:26:00;;;;;;;7.85;2.50;;;13.10;78.00;;;;;;4959218;28;20038;-77
2022/02/27 12:28:44;;;;;;;8.80;2.78;;;13.60;77.20;;;;;;4956468;28;20375;-77
2022/02/27 12:31:16;;;;;;;9.40;1.85;;;14.10;73.50;;;;;;4988016;28;20505;-82
2022/02/27 12:33:44;;;;;;;8.25;2.45;;;14.40;73.80;;;;;;4972790;28;20030;-81
2022/02/27 12:36:23;;;;;;;9.02;2.17;;;14.60;70.40;;;;;;4992597;28;20057;-82
2022/02/27 12:39:02;;;;;;;5.82;2.00;;;14.80;70.50;;;;;;4956610;28;20057;-82
2022/02/27 12:41:36;;;;;;;6.07;2.00;;;15.00;69.60;;;;;;4980354;28;20026;-82
2022/02/27 12:44:08;;;;;;;6.60;1.60;;;15.30;67.90;;;;;;4997785;28;20064;-83
2022/02/27 12:46:43;;;;;;;5.20;1.55;;;15.60;66.50;;;;;;4979173;28;20042;-83
2022/02/27 12:52:00;;;;;;;5.35;1.77;;;15.90;63.80;;;;;;4987931;28;20125;-82
2022/02/27 12:54:36;;;;;;;4.47;1.70;;;16.10;64.00;;;;;;4974341;28;20042;-81
2022/02/27 12:57:07;;;;;;;6.07;1.85;;;16.40;63.80;;;;;;4974395;28;20026;-79
2022/02/27 12:59:37;;;;;;;5.72;1.90;;;16.80;62.90;;;;;;4986107;28;20019;-84
2022/02/27 13:02:06;;;;;;;4.15;1.40;;;17.20;61.90;;;;;;4971494;28;20180;-84